sensor_id;sensor_type;location;lat;lon;timestamp;pressure;altitude;pressure_sealevel;temperature;humidity
23176;BME280;19910;42.652;23.332;2023-02-03T00:01:58;94856.84;;;2.45;77.97
23176;BME280;19910;42.652;23.332;2023-02-03T00:04:25;94861.13;;;2.41;79.55
23176;BME280;19910;42.652;23.332;2023-02-03T00:06:52;94847.25;;;2.29;79.68
23176;BME280;19910;42.652;23.332;2023-02-03T00:09:19;94856.88;;;2.25;80.62
23176;BME280;19910;42.652;23.332;2023-02-03T00:11:46;94865.44;;;2.17;81.38
23176;BME280;19910;42.652;23.332;2023-02-03T00:14:13;94866.75;;;2.24;81.48
23176;BME280;19910;42.652;23.332;2023-02-03T00:16:41;94866.25;;;2.07;81.42
23176;BME280;19910;42.652;23.332;2023-02-03T00:19:08;94874.00;;;2.13;81.61
23176;BME280;19910;42.652;23.332;2023-02-03T00:21:35;94869.72;;;2.12;81.93
23176;BME280;19910;42.652;23.332;2023-02-03T00:24:01;94857.72;;;2.05;82.41
23176;BME280;19910;42.652;23.332;2023-02-03T00:26:28;94868.13;;;2.01;82.83
23176;BME280;19910;42.652;23.332;2023-02-03T00:28:55;94867.03;;;2.07;83.38
23176;BME280;19910;42.652;23.332;2023-02-03T00:31:24;94869.97;;;1.96;83.95
23176;BME280;19910;42.652;23.332;2023-02-03T00:33:56;94871.88;;;1.90;84.35
23176;BME280;19910;42.652;23.332;2023-02-03T00:36:24;94868.66;;;1.88;84.38
23176;BME280;19910;42.652;23.332;2023-02-03T00:38:51;94878.28;;;1.89;84.83
23176;BME280;19910;42.652;23.332;2023-02-03T00:41:19;94887.34;;;1.98;84.63
23176;BME280;19910;42.652;23.332;2023-02-03T00:43:46;94878.25;;;1.94;84.79
23176;BME280;19910;42.652;23.332;2023-02-03T00:46:13;94883.09;;;1.87;85.17
23176;BME280;19910;42.652;23.332;2023-02-03T00:48:40;94884.69;;;1.98;85.19
23176;BME280;19910;42.652;23.332;2023-02-03T00:51:08;94890.56;;;1.95;84.92
23176;BME280;19910;42.652;23.332;2023-02-03T00:53:35;94884.66;;;1.93;84.41
23176;BME280;19910;42.652;23.332;2023-02-03T00:56:01;94885.22;;;1.90;84.50
23176;BME280;19910;42.652;23.332;2023-02-03T00:58:28;94903.38;;;1.93;84.75
23176;BME280;19910;42.652;23.332;2023-02-03T01:00:55;94896.41;;;1.92;84.25
23176;BME280;19910;42.652;23.332;2023-02-03T01:03:25;94892.41;;;1.95;84.26
23176;BME280;19910;42.652;23.332;2023-02-03T01:05:51;94904.97;;;1.94;83.88
23176;BME280;19910;42.652;23.332;2023-02-03T01:08:20;94901.25;;;1.90;84.92
23176;BME280;19910;42.652;23.332;2023-02-03T01:10:48;94913.53;;;1.86;85.80
23176;BME280;19910;42.652;23.332;2023-02-03T01:13:14;94907.63;;;1.79;86.25
23176;BME280;19910;42.652;23.332;2023-02-03T01:15:44;94907.38;;;1.75;85.90
23176;BME280;19910;42.652;23.332;2023-02-03T01:18:11;94904.44;;;1.72;86.39
23176;BME280;19910;42.652;23.332;2023-02-03T01:20:38;94896.41;;;1.72;85.15
23176;BME280;19910;42.652;23.332;2023-02-03T01:23:05;94901.47;;;1.78;84.57
23176;BME280;19910;42.652;23.332;2023-02-03T01:25:35;94902.31;;;1.89;85.08
23176;BME280;19910;42.652;23.332;2023-02-03T01:28:01;94903.91;;;1.80;84.25
23176;BME280;19910;42.652;23.332;2023-02-03T01:30:30;94897.50;;;1.76;83.93
23176;BME280;19910;42.652;23.332;2023-02-03T01:32:57;94893.75;;;1.62;83.93
23176;BME280;19910;42.652;23.332;2023-02-03T01:35:23;94886.25;;;1.59;84.28
23176;BME280;19910;42.652;23.332;2023-02-03T01:37:50;94890.78;;;1.58;83.79
23176;BME280;19910;42.652;23.332;2023-02-03T01:40:17;94889.47;;;1.61;83.76
23176;BME280;19910;42.652;23.332;2023-02-03T01:42:46;94897.47;;;1.56;83.93
23176;BME280;19910;42.652;23.332;2023-02-03T01:45:13;94920.94;;;1.54;83.85
23176;BME280;19910;42.652;23.332;2023-02-03T01:47:43;94902.00;;;1.55;84.22
23176;BME280;19910;42.652;23.332;2023-02-03T01:50:16;94926.81;;;1.56;84.04
23176;BME280;19910;42.652;23.332;2023-02-03T01:52:46;94928.69;;;1.55;84.86
23176;BME280;19910;42.652;23.332;2023-02-03T01:55:19;94928.16;;;1.58;84.22
23176;BME280;19910;42.652;23.332;2023-02-03T01:57:53;94933.78;;;1.62;84.36
23176;BME280;19910;42.652;23.332;2023-02-03T02:00:22;94928.44;;;1.62;84.56
23176;BME280;19910;42.652;23.332;2023-02-03T02:02:49;94923.63;;;1.59;84.25
23176;BME280;19910;42.652;23.332;2023-02-03T02:05:20;94922.81;;;1.58;83.84
23176;BME280;19910;42.652;23.332;2023-02-03T02:07:51;94930.56;;;1.60;83.85
23176;BME280;19910;42.652;23.332;2023-02-03T02:10:18;94929.50;;;1.66;83.48
23176;BME280;19910;42.652;23.332;2023-02-03T02:12:44;94933.78;;;1.67;83.52
23176;BME280;19910;42.652;23.332;2023-02-03T02:15:14;94931.66;;;1.64;83.03
23176;BME280;19910;42.652;23.332;2023-02-03T02:17:53;94940.19;;;1.61;83.11
23176;BME280;19910;42.652;23.332;2023-02-03T02:20:53;94945.00;;;1.69;82.67
23176;BME280;19910;42.652;23.332;2023-02-03T02:23:44;94946.63;;;1.70;82.49
23176;BME280;19910;42.652;23.332;2023-02-03T02:26:50;94934.34;;;1.79;82.04
23176;BME280;19910;42.652;23.332;2023-02-03T02:32:38;94928.47;;;1.72;81.94
23176;BME280;19910;42.652;23.332;2023-02-03T02:35:16;94939.69;;;1.79;81.73
23176;BME280;19910;42.652;23.332;2023-02-03T02:37:47;94942.88;;;1.71;81.58
23176;BME280;19910;42.652;23.332;2023-02-03T02:40:22;94946.31;;;1.66;81.68
23176;BME280;19910;42.652;23.332;2023-02-03T02:42:59;94953.28;;;1.67;81.78
23176;BME280;19910;42.652;23.332;2023-02-03T02:45:30;94943.41;;;1.68;81.56
23176;BME280;19910;42.652;23.332;2023-02-03T02:48:06;94945.00;;;1.69;81.34
23176;BME280;19910;42.652;23.332;2023-02-03T02:50:37;94947.41;;;1.60;81.38
23176;BME280;19910;42.652;23.332;2023-02-03T02:53:06;94934.31;;;1.59;80.40
23176;BME280;19910;42.652;23.332;2023-02-03T02:55:36;94939.09;;;1.52;80.89
23176;BME280;19910;42.652;23.332;2023-02-03T02:58:07;94955.94;;;1.62;80.33
23176;BME280;19910;42.652;23.332;2023-02-03T03:00:35;94961.78;;;1.54;80.37
23176;BME280;19910;42.652;23.332;2023-02-03T03:03:15;94950.31;;;1.59;80.47
23176;BME280;19910;42.652;23.332;2023-02-03T03:05:47;94952.97;;;1.54;80.26
23176;BME280;19910;42.652;23.332;2023-02-03T03:08:17;94959.91;;;1.55;79.54
23176;BME280;19910;42.652;23.332;2023-02-03T03:10:46;94956.97;;;1.46;79.71
23176;BME280;19910;42.652;23.332;2023-02-03T03:13:17;94967.38;;;1.53;80.05
23176;BME280;19910;42.652;23.332;2023-02-03T03:15:46;94967.94;;;1.50;79.39
23176;BME280;19910;42.652;23.332;2023-02-03T03:18:20;94956.97;;;1.46;79.04
23176;BME280;19910;42.652;23.332;2023-02-03T03:20:50;94965.78;;;1.52;79.10
23176;BME280;19910;42.652;23.332;2023-02-03T03:23:22;94963.41;;;1.50;78.58
23176;BME280;19910;42.652;23.332;2023-02-03T03:25:55;94974.34;;;1.59;77.71
23176;BME280;19910;42.652;23.332;2023-02-03T03:28:31;94965.78;;;1.47;77.18
23176;BME280;19910;42.652;23.332;2023-02-03T03:30:58;94961.50;;;1.46;78.23
23176;BME280;19910;42.652;23.332;2023-02-03T03:33:26;94962.53;;;1.39;77.73
23176;BME280;19910;42.652;23.332;2023-02-03T03:35:57;94963.34;;;1.40;77.46
23176;BME280;19910;42.652;23.332;2023-02-03T03:38:31;94971.66;;;1.49;77.15
23176;BME280;19910;42.652;23.332;2023-02-03T03:41:11;94971.63;;;1.43;77.49
23176;BME280;19910;42.652;23.332;2023-02-03T03:43:43;94963.09;;;1.36;77.56
23176;BME280;19910;42.652;23.332;2023-02-03T03:46:16;94952.63;;;1.30;77.65
23176;BME280;19910;42.652;23.332;2023-02-03T03:48:52;94963.59;;;1.33;78.02
23176;BME280;19910;42.652;23.332;2023-02-03T03:51:23;94984.75;;;1.50;77.52
23176;BME280;19910;42.652;23.332;2023-02-03T03:53:52;94975.91;;;1.45;77.39
23176;BME280;19910;42.652;23.332;2023-02-03T03:56:24;94978.88;;;1.48;77.28
23176;BME280;19910;42.652;23.332;2023-02-03T03:58:55;94959.34;;;1.42;78.13
23176;BME280;19910;42.652;23.332;2023-02-03T04:01:25;94973.78;;;1.47;77.28
23176;BME280;19910;42.652;23.332;2023-02-03T04:03:55;94965.78;;;1.47;77.44
23176;BME280;19910;42.652;23.332;2023-02-03T04:06:23;94979.66;;;1.43;77.47
23176;BME280;19910;42.652;23.332;2023-02-03T04:08:50;94982.81;;;1.35;78.06
23176;BME280;19910;42.652;23.332;2023-02-03T04:11:17;94984.69;;;1.40;78.41
23176;BME280;19910;42.652;23.332;2023-02-03T04:13:57;94987.66;;;1.43;78.31
23176;BME280;19910;42.652;23.332;2023-02-03T04:16:24;94987.09;;;1.41;78.35
23176;BME280;19910;42.652;23.332;2023-02-03T04:18:52;94996.94;;;1.31;78.70
23176;BME280;19910;42.652;23.332;2023-02-03T04:21:24;94999.34;;;1.32;78.65
23176;BME280;19910;42.652;23.332;2023-02-03T04:23:51;95005.50;;;1.33;78.65
23176;BME280;19910;42.652;23.332;2023-02-03T04:26:20;95018.56;;;1.34;78.85
23176;BME280;19910;42.652;23.332;2023-02-03T04:28:47;95032.72;;;1.40;78.14
23176;BME280;19910;42.652;23.332;2023-02-03T04:31:14;95027.41;;;1.40;78.32
23176;BME280;19910;42.652;23.332;2023-02-03T04:33:41;95033.28;;;1.42;78.29
23176;BME280;19910;42.652;23.332;2023-02-03T04:36:09;95029.25;;;1.34;78.53
23176;BME280;19910;42.652;23.332;2023-02-03T04:38:36;95040.56;;;1.57;78.79
23176;BME280;19910;42.652;23.332;2023-02-03T04:41:03;95041.56;;;1.51;77.94
23176;BME280;19910;42.652;23.332;2023-02-03T04:43:29;95054.66;;;1.47;78.27
23176;BME280;19910;42.652;23.332;2023-02-03T04:45:58;95052.00;;;1.52;78.39
23176;BME280;19910;42.652;23.332;2023-02-03T04:48:25;95052.81;;;1.53;77.87
23176;BME280;19910;42.652;23.332;2023-02-03T04:50:52;95066.69;;;1.55;78.36
23176;BME280;19910;42.652;23.332;2023-02-03T04:53:20;95072.00;;;1.45;78.17
23176;BME280;19910;42.652;23.332;2023-02-03T04:55:47;95069.38;;;1.50;78.20
23176;BME280;19910;42.652;23.332;2023-02-03T04:58:14;95065.09;;;1.49;78.06
23176;BME280;19910;42.652;23.332;2023-02-03T05:00:41;95067.75;;;1.49;77.87
23176;BME280;19910;42.652;23.332;2023-02-03T05:03:07;95064.50;;;1.41;78.12
23176;BME280;19910;42.652;23.332;2023-02-03T05:05:34;95077.09;;;2.29;84.24
23176;BME280;19910;42.652;23.332;2023-02-03T05:08:01;95077.06;;;2.13;79.77
23176;BME280;19910;42.652;23.332;2023-02-03T05:10:29;95082.81;;;1.75;77.13
23176;BME280;19910;42.652;23.332;2023-02-03T05:12:56;95084.41;;;1.71;77.21
23176;BME280;19910;42.652;23.332;2023-02-03T05:15:22;95084.09;;;1.62;77.10
23176;BME280;19910;42.652;23.332;2023-02-03T05:17:50;95077.97;;;1.62;77.07
23176;BME280;19910;42.652;23.332;2023-02-03T05:20:21;95094.53;;;1.64;77.57
23176;BME280;19910;42.652;23.332;2023-02-03T05:22:48;95089.69;;;1.61;77.85
23176;BME280;19910;42.652;23.332;2023-02-03T05:25:15;95092.06;;;1.57;77.96
23176;BME280;19910;42.652;23.332;2023-02-03T05:27:43;95094.72;;;1.52;77.60
23176;BME280;19910;42.652;23.332;2023-02-03T05:30:11;95097.63;;;1.51;77.94
23176;BME280;19910;42.652;23.332;2023-02-03T05:32:38;95102.72;;;1.47;77.90
23176;BME280;19910;42.652;23.332;2023-02-03T05:35:05;95093.31;;;1.39;78.23
23176;BME280;19910;42.652;23.332;2023-02-03T05:37:32;95101.06;;;1.36;78.58
23176;BME280;19910;42.652;23.332;2023-02-03T05:39:59;95095.41;;;1.32;78.82
23176;BME280;19910;42.652;23.332;2023-02-03T05:42:47;95089.50;;;1.25;78.91
23176;BME280;19910;42.652;23.332;2023-02-03T05:45:14;95097.94;;;1.07;79.82
23176;BME280;19910;42.652;23.332;2023-02-03T05:47:41;95101.09;;;1.04;79.94
23176;BME280;19910;42.652;23.332;2023-02-03T05:50:08;95110.66;;;1.00;80.05
23176;BME280;19910;42.652;23.332;2023-02-03T05:52:35;95106.97;;;1.06;79.71
23176;BME280;19910;42.652;23.332;2023-02-03T05:55:09;95105.13;;;1.12;79.36
23176;BME280;19910;42.652;23.332;2023-02-03T05:57:35;95123.56;;;1.13;79.88
23176;BME280;19910;42.652;23.332;2023-02-03T06:00:04;95122.50;;;1.09;79.97
23176;BME280;19910;42.652;23.332;2023-02-03T06:02:32;95116.09;;;1.15;79.81
23176;BME280;19910;42.652;23.332;2023-02-03T06:04:58;95121.44;;;1.15;79.34
23176;BME280;19910;42.652;23.332;2023-02-03T06:07:25;95120.44;;;1.26;78.86
23176;BME280;19910;42.652;23.332;2023-02-03T06:09:52;95124.00;;;1.89;76.85
23176;BME280;19910;42.652;23.332;2023-02-03T06:12:19;95120.66;;;2.29;74.85
23176;BME280;19910;42.652;23.332;2023-02-03T06:14:46;95116.97;;;2.61;74.00
23176;BME280;19910;42.652;23.332;2023-02-03T06:17:14;95114.53;;;2.29;74.29
23176;BME280;19910;42.652;23.332;2023-02-03T06:19:41;95120.50;;;2.71;73.17
23176;BME280;19910;42.652;23.332;2023-02-03T06:22:07;95123.69;;;3.24;71.71
23176;BME280;19910;42.652;23.332;2023-02-03T06:24:34;95111.34;;;3.48;69.95
23176;BME280;19910;42.652;23.332;2023-02-03T06:27:01;95125.25;;;3.61;68.67
23176;BME280;19910;42.652;23.332;2023-02-03T06:29:28;95124.72;;;3.58;68.35
23176;BME280;19910;42.652;23.332;2023-02-03T06:31:54;95128.69;;;3.76;67.70
23176;BME280;19910;42.652;23.332;2023-02-03T06:34:23;95136.97;;;3.85;67.18
23176;BME280;19910;42.652;23.332;2023-02-03T06:36:49;95136.91;;;4.05;66.27
23176;BME280;19910;42.652;23.332;2023-02-03T06:39:16;95136.91;;;4.05;66.20
23176;BME280;19910;42.652;23.332;2023-02-03T06:41:47;95142.22;;;4.10;65.65
23176;BME280;19910;42.652;23.332;2023-02-03T06:44:16;95150.31;;;4.00;65.55
23176;BME280;19910;42.652;23.332;2023-02-03T06:46:43;95150.75;;;4.27;64.83
23176;BME280;19910;42.652;23.332;2023-02-03T06:49:10;95149.94;;;4.27;63.90
23176;BME280;19910;42.652;23.332;2023-02-03T06:51:38;95135.97;;;4.35;63.67
23176;BME280;19910;42.652;23.332;2023-02-03T06:54:05;95155.94;;;4.04;65.07
23176;BME280;19910;42.652;23.332;2023-02-03T06:56:32;95162.47;;;3.57;66.05
23176;BME280;19910;42.652;23.332;2023-02-03T06:58:59;95155.81;;;3.49;66.65
23176;BME280;19910;42.652;23.332;2023-02-03T07:01:26;95141.38;;;3.10;67.42
23176;BME280;19910;42.652;23.332;2023-02-03T07:03:54;95152.06;;;2.90;68.82
23176;BME280;19910;42.652;23.332;2023-02-03T07:06:22;95141.91;;;2.87;69.01
23176;BME280;19910;42.652;23.332;2023-02-03T07:08:54;95149.38;;;2.84;69.07
23176;BME280;19910;42.652;23.332;2023-02-03T07:11:21;95142.41;;;2.73;69.60
23176;BME280;19910;42.652;23.332;2023-02-03T07:13:49;95137.06;;;2.68;69.79
23176;BME280;19910;42.652;23.332;2023-02-03T07:16:15;95134.66;;;2.72;69.46
23176;BME280;19910;42.652;23.332;2023-02-03T07:18:43;95125.84;;;2.87;69.52
23176;BME280;19910;42.652;23.332;2023-02-03T07:21:10;95128.50;;;2.81;69.23
23176;BME280;19910;42.652;23.332;2023-02-03T07:23:37;95125.28;;;2.74;68.92
23176;BME280;19910;42.652;23.332;2023-02-03T07:26:06;95131.69;;;2.73;69.22
23176;BME280;19910;42.652;23.332;2023-02-03T07:28:34;95131.69;;;2.73;68.97
23176;BME280;19910;42.652;23.332;2023-02-03T07:31:01;95146.97;;;2.78;68.78
23176;BME280;19910;42.652;23.332;2023-02-03T07:33:29;95146.16;;;2.88;69.07
23176;BME280;19910;42.652;23.332;2023-02-03T07:35:57;95146.69;;;2.90;67.43
23176;BME280;19910;42.652;23.332;2023-02-03T07:38:25;95148.03;;;2.87;68.00
23176;BME280;19910;42.652;23.332;2023-02-03T07:40:53;95141.34;;;2.69;68.52
23176;BME280;19910;42.652;23.332;2023-02-03T07:43:21;95154.69;;;2.59;69.12
23176;BME280;19910;42.652;23.332;2023-02-03T07:45:47;95166.22;;;2.80;68.92
23176;BME280;19910;42.652;23.332;2023-02-03T07:48:14;95168.38;;;2.93;68.51
23176;BME280;19910;42.652;23.332;2023-02-03T07:50:41;95173.44;;;2.74;68.79
23176;BME280;19910;42.652;23.332;2023-02-03T07:53:10;95169.72;;;2.91;68.52
23176;BME280;19910;42.652;23.332;2023-02-03T07:55:37;95169.22;;;3.14;68.12
23176;BME280;19910;42.652;23.332;2023-02-03T07:58:04;95165.16;;;3.01;67.53
23176;BME280;19910;42.652;23.332;2023-02-03T08:00:33;95167.59;;;3.33;67.79
23176;BME280;19910;42.652;23.332;2023-02-03T08:03:00;95177.50;;;3.17;67.16
23176;BME280;19910;42.652;23.332;2023-02-03T08:05:26;95180.16;;;3.07;67.83
23176;BME280;19910;42.652;23.332;2023-02-03T08:07:54;95190.34;;;3.00;67.85
23176;BME280;19910;42.652;23.332;2023-02-03T08:10:21;95186.84;;;2.90;67.93
23176;BME280;19910;42.652;23.332;2023-02-03T08:12:48;95185.22;;;2.83;68.97
23176;BME280;19910;42.652;23.332;2023-02-03T08:15:15;95180.94;;;2.82;68.48
23176;BME280;19910;42.652;23.332;2023-02-03T08:17:43;95199.69;;;2.82;68.10
23176;BME280;19910;42.652;23.332;2023-02-03T08:20:11;95202.38;;;2.93;69.03
23176;BME280;19910;42.652;23.332;2023-02-03T08:22:38;95203.44;;;3.02;67.87
23176;BME280;19910;42.652;23.332;2023-02-03T08:25:08;95199.16;;;2.85;67.02
23176;BME280;19910;42.652;23.332;2023-02-03T08:27:35;95207.44;;;2.89;66.90
23176;BME280;19910;42.652;23.332;2023-02-03T08:30:03;95208.53;;;2.98;67.41
23176;BME280;19910;42.652;23.332;2023-02-03T08:32:31;95207.22;;;3.31;67.03
23176;BME280;19910;42.652;23.332;2023-02-03T08:35:00;95203.44;;;3.42;65.53
23176;BME280;19910;42.652;23.332;2023-02-03T08:37:26;95213.66;;;3.66;66.23
23176;BME280;19910;42.652;23.332;2023-02-03T08:39:58;95207.22;;;3.46;65.22
23176;BME280;19910;42.652;23.332;2023-02-03T08:42:25;95212.03;;;3.65;65.05
23176;BME280;19910;42.652;23.332;2023-02-03T08:44:52;95217.88;;;3.87;63.89
23176;BME280;19910;42.652;23.332;2023-02-03T08:47:19;95221.66;;;3.81;63.44
23176;BME280;19910;42.652;23.332;2023-02-03T08:49:48;95219.22;;;3.84;64.57
23176;BME280;19910;42.652;23.332;2023-02-03T08:52:16;95212.47;;;4.22;62.60
23176;BME280;19910;42.652;23.332;2023-02-03T08:54:44;95229.09;;;4.19;63.50
23176;BME280;19910;42.652;23.332;2023-02-03T08:57:11;95225.53;;;4.39;63.29
23176;BME280;19910;42.652;23.332;2023-02-03T08:59:39;95231.72;;;4.29;64.05
23176;BME280;19910;42.652;23.332;2023-02-03T09:02:10;95238.22;;;3.98;64.09
23176;BME280;19910;42.652;23.332;2023-02-03T09:04:39;95239.56;;;4.06;65.66
23176;BME280;19910;42.652;23.332;2023-02-03T09:07:05;95236.09;;;4.00;64.70
23176;BME280;19910;42.652;23.332;2023-02-03T09:09:33;95225.63;;;3.99;65.22
23176;BME280;19910;42.652;23.332;2023-02-03T09:12:00;95222.94;;;4.04;65.17
23176;BME280;19910;42.652;23.332;2023-02-03T09:14:30;95231.53;;;4.01;65.20
23176;BME280;19910;42.652;23.332;2023-02-03T09:16:57;95213.56;;;4.01;64.24
23176;BME280;19910;42.652;23.332;2023-02-03T09:19:24;95203.97;;;3.80;65.34
23176;BME280;19910;42.652;23.332;2023-02-03T09:21:51;95221.06;;;4.04;65.36
23176;BME280;19910;42.652;23.332;2023-02-03T09:24:17;95220.31;;;3.88;65.59
23176;BME280;19910;42.652;23.332;2023-02-03T09:26:46;95203.88;;;4.10;65.74
23176;BME280;19910;42.652;23.332;2023-02-03T09:29:12;95199.63;;;4.04;65.25
23176;BME280;19910;42.652;23.332;2023-02-03T09:31:39;95206.03;;;4.13;65.35
23176;BME280;19910;42.652;23.332;2023-02-03T09:34:06;95206.00;;;4.28;64.89
23176;BME280;19910;42.652;23.332;2023-02-03T09:36:33;95196.94;;;4.09;64.33
23176;BME280;19910;42.652;23.332;2023-02-03T09:39:00;95209.81;;;3.97;64.85
23176;BME280;19910;42.652;23.332;2023-02-03T09:41:38;95208.78;;;3.73;65.52
23176;BME280;19910;42.652;23.332;2023-02-03T09:44:14;95209.31;;;3.70;65.98
23176;BME280;19910;42.652;23.332;2023-02-03T09:46:46;95211.50;;;3.47;65.99
23176;BME280;19910;42.652;23.332;2023-02-03T09:49:17;95214.13;;;3.93;65.43
23176;BME280;19910;42.652;23.332;2023-02-03T09:51:51;95196.72;;;3.85;64.80
23176;BME280;19910;42.652;23.332;2023-02-03T09:54:20;95208.78;;;3.93;63.65
23176;BME280;19910;42.652;23.332;2023-02-03T09:56:50;95195.69;;;3.66;62.88
23176;BME280;19910;42.652;23.332;2023-02-03T09:59:21;95201.84;;;3.46;63.29
23176;BME280;19910;42.652;23.332;2023-02-03T10:01:54;95185.78;;;3.51;63.78
23176;BME280;19910;42.652;23.332;2023-02-03T10:04:29;95204.53;;;3.56;62.75
23176;BME280;19910;42.652;23.332;2023-02-03T10:07:05;95189.00;;;3.53;62.81
23176;BME280;19910;42.652;23.332;2023-02-03T10:09:40;95193.25;;;3.70;62.55
23176;BME280;19910;42.652;23.332;2023-02-03T10:12:33;95178.22;;;3.94;63.19
23176;BME280;19910;42.652;23.332;2023-02-03T10:15:19;95175.47;;;4.19;63.41
23176;BME280;19910;42.652;23.332;2023-02-03T10:17:52;95178.25;;;4.58;62.48
23176;BME280;19910;42.652;23.332;2023-02-03T10:20:23;95170.31;;;4.82;60.49
23176;BME280;19910;42.652;23.332;2023-02-03T10:22:55;95175.50;;;5.08;60.66
23176;BME280;19910;42.652;23.332;2023-02-03T10:25:32;95184.19;;;4.45;61.32
23176;BME280;19910;42.652;23.332;2023-02-03T10:28:03;95177.50;;;4.38;60.87
23176;BME280;19910;42.652;23.332;2023-02-03T10:30:39;95174.06;;;4.81;60.14
23176;BME280;19910;42.652;23.332;2023-02-03T10:33:11;95145.41;;;4.77;59.17
23176;BME280;19910;42.652;23.332;2023-02-03T10:35:45;95158.69;;;4.97;59.12
23176;BME280;19910;42.652;23.332;2023-02-03T10:38:22;95159.31;;;4.84;57.81
23176;BME280;19910;42.652;23.332;2023-02-03T10:40:50;95161.75;;;5.19;57.50
23176;BME280;19910;42.652;23.332;2023-02-03T10:43:17;95155.00;;;4.83;57.34
23176;BME280;19910;42.652;23.332;2023-02-03T10:46:03;95154.66;;;4.94;58.35
23176;BME280;19910;42.652;23.332;2023-02-03T10:48:30;95168.31;;;4.59;58.82
23176;BME280;19910;42.652;23.332;2023-02-03T10:50:57;95154.56;;;4.65;58.23
23176;BME280;19910;42.652;23.332;2023-02-03T10:53:25;95155.78;;;4.44;58.26
23176;BME280;19910;42.652;23.332;2023-02-03T10:56:02;95166.63;;;4.19;58.74
23176;BME280;19910;42.652;23.332;2023-02-03T10:58:32;95168.47;;;4.23;58.48
23176;BME280;19910;42.652;23.332;2023-02-03T11:01:08;95170.31;;;4.33;58.37
23176;BME280;19910;42.652;23.332;2023-02-03T11:03:35;95149.94;;;4.27;57.55
23176;BME280;19910;42.652;23.332;2023-02-03T11:06:04;95159.38;;;4.19;57.06
23176;BME280;19910;42.652;23.332;2023-02-03T11:08:32;95169.25;;;4.24;57.23
23176;BME280;19910;42.652;23.332;2023-02-03T11:11:04;95160.88;;;4.46;56.04
23176;BME280;19910;42.652;23.332;2023-02-03T11:13:31;95161.41;;;4.38;55.94
23176;BME280;19910;42.652;23.332;2023-02-03T11:16:00;95159.63;;;4.77;53.94
23176;BME280;19910;42.652;23.332;2023-02-03T11:18:42;95158.31;;;5.14;53.31
23176;BME280;19910;42.652;23.332;2023-02-03T11:21:15;95151.31;;;5.13;53.73
23176;BME280;19910;42.652;23.332;2023-02-03T11:24:00;95155.63;;;4.20;56.02
23176;BME280;19910;42.652;23.332;2023-02-03T11:26:29;95164.22;;;4.12;56.88
23176;BME280;19910;42.652;23.332;2023-02-03T11:28:59;95149.19;;;4.16;58.10
23176;BME280;19910;42.652;23.332;2023-02-03T11:31:28;95142.44;;;4.29;57.49
23176;BME280;19910;42.652;23.332;2023-02-03T11:34:01;95147.00;;;4.28;58.00
23176;BME280;19910;42.652;23.332;2023-02-03T11:36:31;95146.47;;;4.26;55.92
23176;BME280;19910;42.652;23.332;2023-02-03T11:39:19;95133.97;;;4.61;54.95
23176;BME280;19910;42.652;23.332;2023-02-03T11:41:47;95118.06;;;4.70;53.93
23176;BME280;19910;42.652;23.332;2023-02-03T11:44:19;95114.94;;;4.96;54.69
23176;BME280;19910;42.652;23.332;2023-02-03T11:46:49;95116.88;;;4.91;53.87
23176;BME280;19910;42.652;23.332;2023-02-03T11:52:34;95120.63;;;5.24;54.10
23176;BME280;19910;42.652;23.332;2023-02-03T11:55:15;95104.66;;;5.38;52.88
23176;BME280;19910;42.652;23.332;2023-02-03T11:57:55;95100.56;;;5.45;51.60
23176;BME280;19910;42.652;23.332;2023-02-03T12:00:35;95112.47;;;5.05;53.57
23176;BME280;19910;42.652;23.332;2023-02-03T12:03:21;95119.09;;;5.13;52.63
23176;BME280;19910;42.652;23.332;2023-02-03T12:06:06;95110.69;;;5.24;51.92
23176;BME280;19910;42.652;23.332;2023-02-03T12:08:52;95124.34;;;5.28;50.59
23176;BME280;19910;42.652;23.332;2023-02-03T12:11:35;95106.09;;;5.25;50.71
23176;BME280;19910;42.652;23.332;2023-02-03T12:14:21;95098.56;;;5.27;49.50
23176;BME280;19910;42.652;23.332;2023-02-03T12:17:07;95110.06;;;5.04;49.65
23176;BME280;19910;42.652;23.332;2023-02-03T12:19:51;95135.78;;;4.65;49.32
23176;BME280;19910;42.652;23.332;2023-02-03T12:22:29;95114.84;;;4.23;50.92
23176;BME280;19910;42.652;23.332;2023-02-03T12:25:06;95133.75;;;3.93;50.72
23176;BME280;19910;42.652;23.332;2023-02-03T12:27:40;95139.13;;;3.73;49.25
23176;BME280;19910;42.652;23.332;2023-02-03T12:30:15;95131.91;;;3.78;50.53
23176;BME280;19910;42.652;23.332;2023-02-03T12:32:48;95133.47;;;3.95;50.87
23176;BME280;19910;42.652;23.332;2023-02-03T12:35:20;95145.53;;;3.92;51.22
23176;BME280;19910;42.652;23.332;2023-02-03T12:37:55;95115.56;;;3.75;50.69
23176;BME280;19910;42.652;23.332;2023-02-03T12:40:30;95121.34;;;4.07;51.16
23176;BME280;19910;42.652;23.332;2023-02-03T12:43:16;95100.88;;;4.32;50.91
23176;BME280;19910;42.652;23.332;2023-02-03T12:45:50;95111.97;;;4.10;50.50
23176;BME280;19910;42.652;23.332;2023-02-03T12:48:22;95117.56;;;4.13;50.35
23176;BME280;19910;42.652;23.332;2023-02-03T12:50:55;95111.22;;;3.94;51.52
23176;BME280;19910;42.652;23.332;2023-02-03T12:53:28;95112.78;;;4.00;52.64
23176;BME280;19910;42.652;23.332;2023-02-03T12:55:59;95095.03;;;4.19;53.26
23176;BME280;19910;42.652;23.332;2023-02-03T12:58:31;95100.34;;;4.24;52.82
23176;BME280;19910;42.652;23.332;2023-02-03T13:01:04;95101.69;;;4.27;51.94
23176;BME280;19910;42.652;23.332;2023-02-03T13:03:38;95081.53;;;4.35;52.88
23176;BME280;19910;42.652;23.332;2023-02-03T13:06:19;95088.69;;;4.49;52.69
23176;BME280;19910;42.652;23.332;2023-02-03T13:08:53;95092.22;;;4.45;53.26
23176;BME280;19910;42.652;23.332;2023-02-03T13:11:25;95095.41;;;4.47;52.90
23176;BME280;19910;42.652;23.332;2023-02-03T13:13:56;95087.44;;;4.32;53.99
23176;BME280;19910;42.652;23.332;2023-02-03T13:16:29;95099.28;;;4.25;54.83
23176;BME280;19910;42.652;23.332;2023-02-03T13:19:02;95091.84;;;4.12;55.39
23176;BME280;19910;42.652;23.332;2023-02-03T13:21:31;95084.84;;;4.16;56.34
23176;BME280;19910;42.652;23.332;2023-02-03T13:24:02;95096.91;;;4.14;57.02